»·PEaware :: N5157Z KLAX-KSAN

N5157Z :: KLAX-KSAN

FLIGHT INFORMATION

Flight Status: Arrived
Operator: Privately registered:
United States
More flights under this callsign
Pilot: Matt L. (27725)
Aircraft: CESSNA 172 SKYHAWK
(C172)
More flights by this aircraft type
Origin: KLAX Los Angeles Intl
United States
Destination: KSAN San Diego Intl-Lindbergh
United States
More flights between these airports :: More routes between these airports
Route:
File this flight plan on PilotEdge
Remarks:
Altitude:
(Current/Filed)
5,500ft
Speed:
(Current/Filed)
130kts
Departed: 12-Feb-20 09:31 AM
Arrived: 12-Feb-20 10:23 AM
Distance/Time
Traveled:
95nm/0:52
Distance/Time
To Go:
Arrived

Flight Plot

Page will automatically refresh every two minutes.


Map Options




Map Legend


Flown Route
Filed Route
Departure Airport
Arrival Airport
Navaid (VOR, NDB)
Fix

Horizontal Profiles

Position Reports

Time Latitude Longitude Heading Altitude Ground
Speed
12-Feb-20 09:04 33.933207 -118.397462 264 129ft 0kts
12-Feb-20 09:05 33.933207 -118.397462 264 129ft 0kts
12-Feb-20 09:06 33.933207 -118.397462 264 129ft 0kts
12-Feb-20 09:07 33.933207 -118.397462 264 129ft 0kts
12-Feb-20 09:08 33.933207 -118.397462 264 129ft 0kts
12-Feb-20 09:09 33.933207 -118.397462 264 129ft 0kts
12-Feb-20 09:10 33.933207 -118.397462 264 129ft 0kts
12-Feb-20 09:11 33.933207 -118.397462 264 129ft 0kts
12-Feb-20 09:12 33.933207 -118.397462 264 129ft 0kts
12-Feb-20 09:13 33.933207 -118.397462 264 129ft 0kts
12-Feb-20 09:14 33.933207 -118.397462 264 129ft 0kts
12-Feb-20 09:15 33.933207 -118.397462 264 129ft 0kts
12-Feb-20 09:16 33.933207 -118.397462 264 129ft 0kts
12-Feb-20 09:17 33.933207 -118.397462 264 129ft 0kts
12-Feb-20 09:18 33.933207 -118.397462 264 129ft 0kts
12-Feb-20 09:19 33.933207 -118.397462 264 129ft 0kts
12-Feb-20 09:20 33.933207 -118.397462 264 129ft 0kts
12-Feb-20 09:21 33.933207 -118.397462 264 129ft 0kts
12-Feb-20 09:22 33.933197 -118.397574 270 129ft 0kts
12-Feb-20 09:23 33.933880 -118.400277 277 129ft 17kts
12-Feb-20 09:24 33.934756 -118.396194 83 129ft 20kts
12-Feb-20 09:25 33.935296 -118.390903 83 129ft 18kts
12-Feb-20 09:26 33.935913 -118.384833 83 129ft 18kts
12-Feb-20 09:27 33.936331 -118.382813 9 129ft 0kts
12-Feb-20 09:28 33.936331 -118.382813 9 129ft 0kts
12-Feb-20 09:29 33.936331 -118.382813 9 129ft 0kts
12-Feb-20 09:30 33.935965 -118.395327 263 262ft 88kts
12-Feb-20 09:31 33.933343 -118.424407 266 1064ft 88kts
12-Feb-20 09:32 33.930378 -118.454072 267 1810ft 89kts
12-Feb-20 09:34 33.928009 -118.484235 268 2507ft 91kts
12-Feb-20 09:35 33.917518 -118.510433 186 3012ft 107kts
12-Feb-20 09:36 33.882803 -118.506440 171 2981ft 132kts
12-Feb-20 09:37 33.845841 -118.499131 164 3004ft 135kts
12-Feb-20 09:38 33.814632 -118.474088 147 2868ft 130kts
12-Feb-20 09:39 33.781390 -118.450030 141 2205ft 137kts
12-Feb-20 09:40 33.751833 -118.423470 145 2349ft 134kts
12-Feb-20 09:41 33.726251 -118.391382 143 2443ft 130kts
12-Feb-20 09:42 33.696233 -118.365339 141 2390ft 143kts
12-Feb-20 09:43 33.665059 -118.334311 136 2019ft 137kts
12-Feb-20 09:44 33.649933 -118.295335 95 2006ft 134kts
12-Feb-20 09:45 33.636005 -118.255814 137 2006ft 136kts
12-Feb-20 09:46 33.608190 -118.224946 134 2006ft 136kts
12-Feb-20 09:47 33.581219 -118.193076 133 2005ft 136kts
12-Feb-20 09:48 33.554178 -118.160900 133 2005ft 137kts
12-Feb-20 09:49 33.528365 -118.130471 132 2382ft 123kts
12-Feb-20 09:50 33.504626 -118.102113 131 2879ft 119kts
12-Feb-20 09:51 33.481445 -118.074377 131 3377ft 117kts
12-Feb-20 09:51 33.462185 -118.051329 131 3793ft 117kts
12-Feb-20 09:53 33.435364 -118.019269 131 4376ft 116kts
12-Feb-20 09:54 33.412568 -117.992064 130 4876ft 115kts
12-Feb-20 09:54 33.393842 -117.969722 130 5292ft 113kts
12-Feb-20 09:55 33.370199 -117.941492 131 5466ft 131kts
12-Feb-20 09:57 33.339238 -117.904686 132 5466ft 136kts
12-Feb-20 09:57 33.316648 -117.877820 131 5482ft 138kts
12-Feb-20 09:58 33.289261 -117.845294 131 5481ft 139kts
12-Feb-20 09:59 33.261821 -117.812697 130 5481ft 139kts
12-Feb-20 10:00 33.234412 -117.780166 130 5482ft 139kts
12-Feb-20 10:01 33.206939 -117.747594 130 5482ft 139kts
12-Feb-20 10:02 33.179476 -117.715066 130 5482ft 139kts
12-Feb-20 10:03 33.152089 -117.682659 130 5482ft 139kts
12-Feb-20 10:04 33.124585 -117.650144 130 5482ft 139kts
12-Feb-20 10:05 33.097113 -117.617700 130 5482ft 139kts
12-Feb-20 10:06 33.070161 -117.585599 129 5394ft 123kts
12-Feb-20 10:07 33.044831 -117.555196 130 4696ft 146kts
12-Feb-20 10:08 33.015307 -117.520473 131 4006ft 150kts
12-Feb-20 10:09 32.989621 -117.482294 119 3303ft 146kts
12-Feb-20 10:10 32.968043 -117.441721 119 2602ft 144kts
12-Feb-20 10:11 32.944403 -117.406924 141 2434ft 131kts
12-Feb-20 10:12 32.916427 -117.379583 136 2389ft 133kts
12-Feb-20 10:13 32.887358 -117.349492 137 1973ft 135kts
12-Feb-20 10:14 32.858519 -117.319596 137 1574ft 141kts
12-Feb-20 10:15 32.832626 -117.292855 136 1453ft 101kts
12-Feb-20 10:16 32.810761 -117.270176 136 1455ft 104kts
12-Feb-20 10:17 32.788091 -117.246724 137 1223ft 118kts
12-Feb-20 10:18 32.764300 -117.221873 136 1118ft 105kts
12-Feb-20 10:19 32.742921 -117.198334 112 1018ft 107kts
12-Feb-20 10:20 32.736061 -117.168171 157 1187ft 87kts
12-Feb-20 10:21 32.732906 -117.186846 288 22ft 65kts
12-Feb-20 10:22 32.734796 -117.189936 107 21ft 0kts
12-Feb-20 10:23 32.734601 -117.189111 113 21ft 9kts
12-Feb-20 10:24 32.733639 -117.185230 107 21ft 27kts
12-Feb-20 10:25 32.732997 -117.179427 156 21ft 2kts

Navigation Log

Ident Type
Flight plan parsing failed, navigation log unavailable